createdAt,value
2023-01-13T00:01:27.934Z,100303.06
2023-01-13T00:03:56.578Z,100309.28
2023-01-13T00:06:26.160Z,100311.91
2023-01-13T00:08:54.576Z,100321.66
2023-01-13T00:11:22.374Z,100319.13
2023-01-13T00:13:49.519Z,100306.13
2023-01-13T00:16:18.863Z,100302.75
2023-01-13T00:18:46.509Z,100315.91
2023-01-13T00:21:20.452Z,100302.88
2023-01-13T00:23:48.298Z,100312.69
2023-01-13T00:26:25.064Z,100316.34
2023-01-13T00:28:58.197Z,100320.75
2023-01-13T00:31:25.832Z,100314.56
2023-01-13T00:33:56.473Z,100298.69
2023-01-13T00:36:23.676Z,100303.06
2023-01-13T00:38:50.787Z,100290.91
2023-01-13T00:41:22.262Z,100288.44
2023-01-13T00:43:50.670Z,100295.56
2023-01-13T00:46:22.079Z,100296.66
2023-01-13T00:48:49.728Z,100296.72
2023-01-13T00:51:21.389Z,100287.25
2023-01-13T00:53:51.675Z,100289.09
2023-01-13T00:56:38.439Z,100280.53
2023-01-13T00:59:09.823Z,100287.63
2023-01-13T01:01:36.989Z,100292.91
2023-01-13T01:04:04.372Z,100286.97
2023-01-13T01:06:31.485Z,100288.81
2023-01-13T01:08:58.700Z,100288.00
2023-01-13T01:11:30.150Z,100300.28
2023-01-13T01:14:01.584Z,100288.97
2023-01-13T01:16:30.867Z,100286.53
2023-01-13T01:18:58.757Z,100289.19
2023-01-13T01:21:28.417Z,100294.50
2023-01-13T01:23:58.109Z,100302.38
2023-01-13T01:26:27.458Z,100292.69
2023-01-13T01:28:55.402Z,100295.19
2023-01-13T01:31:32.223Z,100308.09
2023-01-13T01:34:00.712Z,100301.81
2023-01-13T01:36:30.219Z,100302.56
2023-01-13T01:38:59.286Z,100312.97
2023-01-13T01:41:31.733Z,100302.56
2023-01-13T01:44:28.529Z,100297.31
2023-01-13T01:46:57.128Z,100293.03
2023-01-13T01:49:30.179Z,100292.22
2023-01-13T01:52:06.538Z,100301.97
2023-01-13T01:54:48.169Z,100302.06
2023-01-13T01:57:23.678Z,100285.53
2023-01-13T01:59:51.182Z,100302.22
2023-01-13T02:02:18.696Z,100300.56
2023-01-13T02:04:53.415Z,100287.50
2023-01-13T02:07:28.753Z,100287.63
2023-01-13T02:10:01.145Z,100292.91
2023-01-13T02:12:29.523Z,100291.16
2023-01-13T02:15:05.619Z,100288.53
2023-01-13T02:18:08.740Z,100296.34
2023-01-13T02:20:59.555Z,100299.94
2023-01-13T02:24:24.301Z,100285.22
2023-01-13T02:27:26.806Z,100292.31
2023-01-13T02:30:49.632Z,100289.75
2023-01-13T02:33:50.480Z,100308.22
2023-01-13T02:36:33.253Z,100297.88
2023-01-13T02:39:13.085Z,100297.97
2023-01-13T02:42:13.192Z,100296.34
2023-01-13T02:44:49.860Z,100302.50
2023-01-13T02:47:25.614Z,100305.13
2023-01-13T02:50:11.054Z,100299.03
2023-01-13T02:52:46.366Z,100294.75
2023-01-13T02:55:22.068Z,100302.75
2023-01-13T02:57:52.617Z,100297.63
2023-01-13T03:00:20.702Z,100299.31
2023-01-13T03:02:49.305Z,100283.56
2023-01-13T03:05:18.219Z,100279.97
2023-01-13T03:08:17.879Z,100284.25
2023-01-13T03:11:03.152Z,100272.81
2023-01-13T03:14:07.988Z,100271.91
2023-01-13T03:16:53.374Z,100271.78
2023-01-13T03:19:29.709Z,100263.84
2023-01-13T03:22:09.639Z,100265.53
2023-01-13T03:24:46.354Z,100264.69
2023-01-13T03:27:36.509Z,100263.78
2023-01-13T03:30:09.745Z,100256.75
2023-01-13T03:32:46.438Z,100249.66
2023-01-13T03:35:30.722Z,100243.50
2023-01-13T03:38:13.423Z,100249.56
2023-01-13T03:40:51.303Z,100241.69
2023-01-13T03:43:55.394Z,100236.38
2023-01-13T03:46:38.958Z,100238.13
2023-01-13T03:49:12.225Z,100227.69
2023-01-13T03:51:47.750Z,100237.22
2023-01-13T03:54:20.061Z,100227.59
2023-01-13T03:57:04.553Z,100226.69
2023-01-13T03:59:41.432Z,100236.31
2023-01-13T04:02:27.500Z,100239.84
2023-01-13T04:05:01.150Z,100237.16
2023-01-13T04:07:57.660Z,100239.84
2023-01-13T04:10:34.732Z,100257.28
2023-01-13T04:13:08.821Z,100245.88
2023-01-13T04:15:42.205Z,100252.81
2023-01-13T04:18:27.382Z,100246.69
2023-01-13T04:21:00.332Z,100246.53
2023-01-13T04:23:28.655Z,100242.00
2023-01-13T04:25:56.506Z,100242.81
2023-01-13T04:28:24.283Z,100252.34
2023-01-13T04:30:51.617Z,100259.13
2023-01-13T04:33:20.484Z,100273.09
2023-01-13T04:35:48.447Z,100262.50
2023-01-13T04:38:18.272Z,100269.56
2023-01-13T04:40:45.629Z,100267.84
2023-01-13T04:43:13.309Z,100263.47
2023-01-13T04:45:40.329Z,100258.28
2023-01-13T04:48:07.350Z,100267.94
2023-01-13T04:50:34.541Z,100271.56
2023-01-13T04:53:01.640Z,100270.81
2023-01-13T04:55:29.146Z,100263.06
2023-01-13T04:57:56.093Z,100263.13
2023-01-13T05:00:23.872Z,100259.69
2023-01-13T05:02:51.940Z,100267.56
2023-01-13T05:05:19.529Z,100268.50
2023-01-13T05:07:46.635Z,100260.72
2023-01-13T05:10:13.993Z,100261.59
2023-01-13T05:13:00.194Z,100257.28
2023-01-13T05:15:46.180Z,100264.34
2023-01-13T05:18:13.635Z,100253.97
2023-01-13T05:20:40.675Z,100262.88
2023-01-13T05:23:26.857Z,100267.44
2023-01-13T05:25:53.896Z,100265.00
2023-01-13T05:28:21.207Z,100271.22
2023-01-13T05:30:52.601Z,100267.88
2023-01-13T05:33:22.824Z,100262.75
2023-01-13T05:35:49.853Z,100248.88
2023-01-13T05:38:18.059Z,100255.09
2023-01-13T05:41:04.219Z,100249.06
2023-01-13T05:43:32.950Z,100254.28
2023-01-13T05:46:07.956Z,100257.59
2023-01-13T05:48:39.523Z,100254.56
2023-01-13T05:51:10.492Z,100259.44
2023-01-13T05:53:37.868Z,100266.16
2023-01-13T05:56:07.522Z,100275.28
2023-01-13T05:58:35.220Z,100276.03
2023-01-13T06:01:07.566Z,100291.66
2023-01-13T06:03:35.491Z,100282.53
2023-01-13T06:06:04.175Z,100283.09
2023-01-13T06:08:32.645Z,100282.13
2023-01-13T06:10:59.956Z,100287.38
2023-01-13T06:13:27.426Z,100284.72
2023-01-13T06:15:59.285Z,100288.25
2023-01-13T06:18:27.326Z,100289.03
2023-01-13T06:20:54.481Z,100289.78
2023-01-13T06:23:21.554Z,100285.44
2023-01-13T06:26:29.526Z,100289.09
2023-01-13T06:28:56.716Z,100287.63
2023-01-13T06:31:25.942Z,100286.97
2023-01-13T06:34:17.024Z,100295.09
2023-01-13T06:36:52.166Z,100291.09
2023-01-13T06:39:28.118Z,100302.06
2023-01-13T06:42:13.854Z,100294.69
2023-01-13T06:44:40.997Z,100291.53
2023-01-13T06:47:08.546Z,100288.22
2023-01-13T06:49:35.591Z,100289.28
2023-01-13T06:52:02.727Z,100285.00
2023-01-13T06:54:29.750Z,100290.38
2023-01-13T06:56:56.970Z,100293.84
2023-01-13T06:59:25.315Z,100300.13
2023-01-13T07:01:52.756Z,100296.69
2023-01-13T07:04:19.882Z,100299.44
2023-01-13T07:06:46.947Z,100302.16
2023-01-13T07:09:13.994Z,100305.72
2023-01-13T07:11:41.277Z,100303.19
2023-01-13T07:14:27.434Z,100313.72
2023-01-13T07:16:54.679Z,100306.78
2023-01-13T07:19:23.949Z,100320.78
2023-01-13T07:21:52.620Z,100321.63
2023-01-13T07:24:20.581Z,100321.56
2023-01-13T07:26:47.908Z,100329.31
2023-01-13T07:29:14.930Z,100319.50
2023-01-13T07:31:42.080Z,100316.63
2023-01-13T07:34:09.152Z,100313.81
2023-01-13T07:36:36.540Z,100318.13
2023-01-13T07:39:04.036Z,100317.06
2023-01-13T07:41:49.725Z,100306.53
2023-01-13T07:44:17.136Z,100321.41
2023-01-13T07:46:44.434Z,100311.06
2023-01-13T07:49:11.765Z,100311.94
2023-01-13T07:51:39.925Z,100312.94
2023-01-13T07:54:07.280Z,100320.88
2023-01-13T07:56:34.875Z,100327.97
2023-01-13T07:59:02.797Z,100329.84
2023-01-13T08:01:31.839Z,100329.88
2023-01-13T08:03:59.231Z,100336.84
2023-01-13T08:06:27.118Z,100338.63
2023-01-13T08:08:54.249Z,100338.63
2023-01-13T08:11:23.507Z,100345.59
2023-01-13T08:13:54.980Z,100347.28
2023-01-13T08:16:22.098Z,100346.38
2023-01-13T08:18:49.199Z,100346.28
2023-01-13T08:21:16.728Z,100351.47
2023-01-13T08:23:45.289Z,100347.09
2023-01-13T08:26:17.370Z,100349.66
2023-01-13T08:28:46.143Z,100353.91
2023-01-13T08:31:16.541Z,100360.00
2023-01-13T08:33:44.423Z,100372.13
2023-01-13T08:36:12.649Z,100373.81
2023-01-13T08:38:42.423Z,100361.41
2023-01-13T08:41:12.565Z,100365.69
2023-01-13T08:43:39.683Z,100368.22
2023-01-13T08:46:06.956Z,100372.56
2023-01-13T08:48:34.416Z,100369.09
2023-01-13T08:51:05.653Z,100370.72
2023-01-13T08:53:32.908Z,100374.13
2023-01-13T08:55:59.856Z,100368.88
2023-01-13T08:58:27.004Z,100378.47
2023-01-13T09:00:54.117Z,100379.22
2023-01-13T09:03:21.207Z,100362.59
2023-01-13T09:05:48.209Z,100384.31
2023-01-13T09:08:15.270Z,100380.78
2023-01-13T09:10:42.418Z,100383.41
2023-01-13T09:13:13.479Z,100385.84
2023-01-13T09:15:46.715Z,100384.75
2023-01-13T09:18:14.184Z,100388.03
2023-01-13T09:20:41.492Z,100381.06
2023-01-13T09:23:10.629Z,100392.38
2023-01-13T09:25:38.988Z,100379.13
2023-01-13T09:28:08.494Z,100389.38
2023-01-13T09:30:37.788Z,100383.94
2023-01-13T09:33:23.495Z,100396.84
2023-01-13T09:35:50.624Z,100387.66
2023-01-13T09:38:17.667Z,100390.66
2023-01-13T09:40:49.642Z,100389.50
2023-01-13T09:43:52.096Z,100396.22
2023-01-13T09:46:47.321Z,100409.22
2023-01-13T09:49:35.887Z,100403.19
2023-01-13T09:52:15.029Z,100419.09
2023-01-13T09:54:49.571Z,100410.38
2023-01-13T09:57:19.584Z,100396.50
2023-01-13T09:59:47.901Z,100432.44
2023-01-13T10:02:27.053Z,100435.03
2023-01-13T10:05:28.359Z,100442.97
2023-01-13T10:08:18.389Z,100452.56
2023-01-13T10:10:49.889Z,100452.47
2023-01-13T10:13:28.636Z,100450.66
2023-01-13T10:16:26.246Z,100448.84
2023-01-13T10:19:16.028Z,100458.47
2023-01-13T10:22:42.734Z,100461.44
2023-01-13T10:25:36.910Z,100454.94
2023-01-13T10:28:19.405Z,100449.59
2023-01-13T10:30:47.835Z,100457.56
2023-01-13T10:33:22.794Z,100472.63
2023-01-13T10:35:55.076Z,100457.03
2023-01-13T10:38:30.009Z,100457.16
2023-01-13T10:41:20.004Z,100469.75
2023-01-13T10:44:01.397Z,100462.41
2023-01-13T10:46:31.627Z,100480.13
2023-01-13T10:49:25.807Z,100486.44
2023-01-13T10:51:52.835Z,100494.47
2023-01-13T10:54:23.572Z,100496.38
2023-01-13T10:57:25.109Z,100508.91
2023-01-13T10:59:53.124Z,100518.03
2023-01-13T11:02:30.684Z,100514.75
2023-01-13T11:04:58.204Z,100519.28
2023-01-13T11:08:01.025Z,100526.41
2023-01-13T11:10:32.615Z,100526.44
2023-01-13T11:13:09.978Z,100527.41
2023-01-13T11:16:13.088Z,100530.91
2023-01-13T11:19:02.296Z,100514.28
2023-01-13T11:21:41.368Z,100519.31
2023-01-13T11:24:36.860Z,100509.50
2023-01-13T11:27:14.531Z,100520.69
2023-01-13T11:30:16.103Z,100518.03
2023-01-13T11:33:04.590Z,100526.00
2023-01-13T11:35:54.425Z,100526.03
2023-01-13T11:38:47.880Z,100519.78
2023-01-13T11:41:32.567Z,100518.03
2023-01-13T11:44:16.104Z,100524.16
2023-01-13T11:46:43.559Z,100522.28
2023-01-13T11:49:26.129Z,100520.25
2023-01-13T11:52:06.810Z,100526.16
2023-01-13T11:55:15.608Z,100532.94
2023-01-13T11:58:18.869Z,100522.84
2023-01-13T12:01:22.312Z,100526.88
2023-01-13T12:04:20.875Z,100523.03
2023-01-13T12:07:12.756Z,100529.88
2023-01-13T12:10:00.804Z,100539.38
2023-01-13T12:13:01.738Z,100534.22
2023-01-13T12:15:36.196Z,100523.91
2023-01-13T12:18:11.481Z,100541.38
2023-01-13T12:20:47.225Z,100549.31
2023-01-13T12:23:46.232Z,100556.63
2023-01-13T12:26:16.774Z,100571.88
2023-01-13T12:29:04.797Z,100572.06
2023-01-13T12:31:39.501Z,100577.72
2023-01-13T12:34:12.589Z,100587.88
2023-01-13T12:37:02.058Z,100575.22
2023-01-13T12:40:01.604Z,100575.53
2023-01-13T12:42:57.919Z,100574.03
2023-01-13T12:45:32.127Z,100589.00
2023-01-13T12:48:00.428Z,100602.25
2023-01-13T12:50:27.496Z,100602.34
2023-01-13T12:53:34.685Z,100590.22
2023-01-13T12:56:35.407Z,100588.38
2023-01-13T12:59:33.900Z,100589.13
2023-01-13T13:02:27.696Z,100592.63
2023-01-13T13:05:01.166Z,100590.00
2023-01-13T13:07:31.148Z,100600.50
2023-01-13T13:10:27.621Z,100598.81
2023-01-13T13:13:19.266Z,100598.00
2023-01-13T13:15:51.967Z,100594.47
2023-01-13T13:18:21.599Z,100612.81
2023-01-13T13:21:07.331Z,100621.50
2023-01-13T13:23:37.319Z,100629.31
2023-01-13T13:26:24.719Z,100635.34
2023-01-13T13:29:19.521Z,100632.56
2023-01-13T13:32:27.665Z,100635.94
2023-01-13T13:35:28.250Z,100649.78
2023-01-13T13:38:30.428Z,100640.91
2023-01-13T13:41:16.502Z,100652.16
2023-01-13T13:44:04.515Z,100655.56
2023-01-13T13:46:47.439Z,100644.09
2023-01-13T13:49:46.637Z,100651.78
2023-01-13T13:52:26.640Z,100663.03
2023-01-13T13:55:02.688Z,100677.06
2023-01-13T13:57:40.041Z,100687.63
2023-01-13T14:00:34.304Z,100679.81
2023-01-13T14:03:07.676Z,100685.13
2023-01-13T14:05:37.034Z,100693.06
2023-01-13T14:08:16.607Z,100693.91
2023-01-13T14:10:46.337Z,100708.75
2023-01-13T14:13:31.689Z,100699.94
2023-01-13T14:16:04.536Z,100716.53
2023-01-13T14:18:44.368Z,100722.66
2023-01-13T14:21:20.842Z,100732.28
2023-01-13T14:23:57.912Z,100734.91
2023-01-13T14:26:31.544Z,100733.19
2023-01-13T14:29:01.533Z,100740.22
2023-01-13T14:31:30.294Z,100741.84
2023-01-13T14:34:02.821Z,100740.06
2023-01-13T14:36:51.288Z,100744.31
2023-01-13T14:39:18.357Z,100753.03
2023-01-13T14:41:48.227Z,100756.50
2023-01-13T14:44:34.366Z,100765.22
2023-01-13T14:47:19.679Z,100766.09
2023-01-13T14:50:03.958Z,100773.03
2023-01-13T14:52:37.079Z,100764.31
2023-01-13T14:55:08.210Z,100773.97
2023-01-13T14:57:39.442Z,100783.50
2023-01-13T15:00:23.534Z,100798.38
2023-01-13T15:03:07.811Z,100786.13
2023-01-13T15:05:38.454Z,100782.66
2023-01-13T15:08:11.503Z,100808.09
2023-01-13T15:10:52.910Z,100808.09
2023-01-13T15:13:41.137Z,100808.97
2023-01-13T15:16:21.516Z,100812.50
2023-01-13T15:18:49.071Z,100824.81
2023-01-13T15:21:17.479Z,100825.66
2023-01-13T15:23:44.816Z,100830.06
2023-01-13T15:26:20.416Z,100831.91
2023-01-13T15:28:48.690Z,100834.47
2023-01-13T15:31:18.125Z,100842.38
2023-01-13T15:33:45.365Z,100854.66
2023-01-13T15:36:31.903Z,100847.59
2023-01-13T15:39:00.911Z,100852.03
2023-01-13T15:41:47.240Z,100856.38
2023-01-13T15:44:36.017Z,100856.44
2023-01-13T15:47:08.757Z,100864.38
2023-01-13T15:49:46.461Z,100866.09
2023-01-13T15:52:22.737Z,100858.28
2023-01-13T15:54:51.648Z,100876.66
2023-01-13T15:57:35.610Z,100885.47
2023-01-13T16:00:14.950Z,100887.25
2023-01-13T16:02:44.454Z,100883.84
2023-01-13T16:05:12.491Z,100885.63
2023-01-13T16:07:39.563Z,100886.50
2023-01-13T16:10:19.844Z,100888.19
2023-01-13T16:12:46.904Z,100907.47
2023-01-13T16:15:16.778Z,100900.44
2023-01-13T16:17:46.378Z,100906.59
2023-01-13T16:20:18.036Z,100912.72
2023-01-13T16:22:47.795Z,100922.41
2023-01-13T16:25:22.765Z,100917.13
2023-01-13T16:27:51.095Z,100931.13
2023-01-13T16:30:34.019Z,100929.38
2023-01-13T16:33:01.548Z,100939.88
2023-01-13T16:35:31.884Z,100946.84
2023-01-13T16:37:59.948Z,100952.09
2023-01-13T16:40:31.163Z,100941.63
2023-01-13T16:43:00.964Z,100951.28
2023-01-13T16:45:28.348Z,100949.53
2023-01-13T16:47:55.386Z,100960.06
2023-01-13T16:50:40.955Z,100954.78
2023-01-13T16:53:10.071Z,100961.00
2023-01-13T16:55:39.866Z,100966.31
2023-01-13T16:58:17.677Z,100964.59
2023-01-13T17:00:46.897Z,100983.06
2023-01-13T17:03:15.060Z,100971.78
2023-01-13T17:05:44.365Z,100980.59
2023-01-13T17:08:17.910Z,100987.66
2023-01-13T17:10:46.989Z,100984.19
2023-01-13T17:13:16.789Z,100997.31
2023-01-13T17:15:45.878Z,100999.06
2023-01-13T17:18:13.527Z,100992.06
2023-01-13T17:20:41.350Z,100992.03
2023-01-13T17:23:08.539Z,101005.16
2023-01-13T17:25:35.601Z,101001.63
2023-01-13T17:28:03.216Z,100996.34
2023-01-13T17:30:30.198Z,100995.50
2023-01-13T17:32:57.217Z,100997.25
2023-01-13T17:35:25.068Z,101003.41
2023-01-13T17:37:53.924Z,101007.81
2023-01-13T17:40:21.265Z,101013.06
2023-01-13T17:42:48.292Z,101013.09
2023-01-13T17:45:16.295Z,101021.03
2023-01-13T17:47:43.377Z,101024.59
2023-01-13T17:50:10.905Z,101035.13
2023-01-13T17:52:37.907Z,101032.56
2023-01-13T17:55:08.429Z,101028.19
2023-01-13T17:57:35.621Z,101034.34
2023-01-13T18:00:05.454Z,101034.38
2023-01-13T18:02:39.257Z,101036.16
2023-01-13T18:05:06.966Z,101037.03
2023-01-13T18:07:38.802Z,101042.28
2023-01-13T18:10:06.716Z,101047.59
2023-01-13T18:12:34.832Z,101052.84
2023-01-13T18:15:01.882Z,101061.63
2023-01-13T18:17:28.865Z,101073.81
2023-01-13T18:20:14.704Z,101089.50
2023-01-13T18:23:00.614Z,101102.72
2023-01-13T18:25:45.909Z,101106.44
2023-01-13T18:28:12.909Z,101074.50
2023-01-13T18:30:39.903Z,101074.81
2023-01-13T18:33:06.945Z,101078.44
2023-01-13T18:35:33.945Z,101093.44
2023-01-13T18:38:00.959Z,101091.78
2023-01-13T18:40:27.937Z,101086.56
2023-01-13T18:42:59.193Z,101095.31
2023-01-13T18:45:30.590Z,101098.00
2023-01-13T18:48:01.990Z,101099.75
2023-01-13T18:50:29.840Z,101101.53
2023-01-13T18:52:57.434Z,101106.81
2023-01-13T18:55:25.527Z,101112.06
2023-01-13T18:57:53.506Z,101112.09
2023-01-13T19:00:22.550Z,101106.88
2023-01-13T19:05:35.545Z,101110.47
2023-01-13T19:08:03.709Z,101112.25
2023-01-13T19:10:32.369Z,101111.38
2023-01-13T19:13:01.193Z,101118.38
2023-01-13T19:15:28.319Z,101120.09
2023-01-13T19:17:55.399Z,101124.47
2023-01-13T19:20:22.367Z,101128.81
2023-01-13T19:22:54.077Z,101136.66
2023-01-13T19:25:21.115Z,101139.25
2023-01-13T19:27:48.056Z,101149.72
2023-01-13T19:30:15.013Z,101152.31
2023-01-13T19:32:42.018Z,101154.03
2023-01-13T19:35:09.252Z,101148.78
2023-01-13T19:37:36.988Z,101157.50
2023-01-13T19:40:09.235Z,101157.44
2023-01-13T19:42:55.535Z,101156.56
2023-01-13T19:45:31.963Z,101154.81
2023-01-13T19:48:05.180Z,101159.16
2023-01-13T19:50:40.290Z,101159.13
2023-01-13T19:53:15.732Z,101172.22
2023-01-13T19:55:51.272Z,101165.16
2023-01-13T19:58:23.941Z,101172.09
2023-01-13T20:00:54.995Z,101189.53
2023-01-13T20:03:26.908Z,101198.22
2023-01-13T20:05:54.912Z,101219.13
2023-01-13T20:08:22.977Z,101207.72
2023-01-13T20:10:49.936Z,101209.47
2023-01-13T20:13:16.979Z,101216.47
2023-01-13T20:15:44.293Z,101222.53
2023-01-13T20:18:11.390Z,101221.66
2023-01-13T20:20:38.287Z,101226.00
2023-01-13T20:23:06.545Z,101226.88
2023-01-13T20:25:33.546Z,101226.91
2023-01-13T20:28:02.193Z,101233.88
2023-01-13T20:30:29.204Z,101236.47
2023-01-13T20:32:56.250Z,101243.47
2023-01-13T20:35:24.377Z,101246.97
2023-01-13T20:37:51.380Z,101245.25
2023-01-13T20:40:18.760Z,101229.56
2023-01-13T20:42:46.606Z,101235.69
2023-01-13T20:45:18.060Z,101243.53
2023-01-13T20:47:47.934Z,101240.03
2023-01-13T20:50:19.408Z,101247.91
2023-01-13T20:52:47.567Z,101246.16
2023-01-13T20:55:14.795Z,101253.19
2023-01-13T20:57:42.102Z,101249.72
2023-01-13T21:00:10.566Z,101252.38
2023-01-13T21:02:40.822Z,101251.50
2023-01-13T21:05:09.245Z,101264.59
2023-01-13T21:07:36.271Z,101257.59
2023-01-13T21:10:04.631Z,101263.66
2023-01-13T21:12:49.953Z,101268.88
2023-01-13T21:15:17.761Z,101270.63
2023-01-13T21:18:06.028Z,101270.56
2023-01-13T21:20:35.506Z,101281.91
2023-01-13T21:23:04.386Z,101281.00
2023-01-13T21:25:35.534Z,101278.38
2023-01-13T21:28:06.617Z,101273.06
2023-01-13T21:30:38.516Z,101277.44
2023-01-13T21:33:06.249Z,101283.53
2023-01-13T21:35:33.826Z,101275.69
2023-01-13T21:38:00.815Z,101280.09
2023-01-13T21:40:27.957Z,101279.25
2023-01-13T21:43:13.821Z,101281.84
2023-01-13T21:45:59.532Z,101280.13
2023-01-13T21:48:26.650Z,101287.13
2023-01-13T21:50:53.742Z,101279.25
2023-01-13T21:53:20.820Z,101289.72
2023-01-13T21:55:52.430Z,101292.34
2023-01-13T21:58:19.495Z,101287.09
2023-01-13T22:00:49.086Z,101294.06
2023-01-13T22:03:18.482Z,101293.16
2023-01-13T22:05:46.328Z,101293.13
2023-01-13T22:08:13.583Z,101311.47
2023-01-13T22:11:00.221Z,101308.81
2023-01-13T22:13:47.938Z,101306.19
2023-01-13T22:16:16.128Z,101313.19
2023-01-13T22:18:43.236Z,101322.78
2023-01-13T22:21:11.020Z,101331.50
2023-01-13T22:23:38.123Z,101329.75
2023-01-13T22:26:07.360Z,101332.38
2023-01-13T22:28:40.676Z,101334.97
2023-01-13T22:31:21.159Z,101337.59
2023-01-13T22:33:48.386Z,101348.06
2023-01-13T22:36:15.821Z,101349.81
2023-01-13T22:38:42.821Z,101354.16
2023-01-13T22:41:10.901Z,101353.25
2023-01-13T22:43:38.681Z,101355.84
2023-01-13T22:46:10.076Z,101348.00
2023-01-13T22:48:38.009Z,101350.63
2023-01-13T22:51:14.889Z,101351.53
2023-01-13T22:53:42.975Z,101355.91
2023-01-13T22:56:18.357Z,101348.94
2023-01-13T22:58:45.519Z,101350.69
2023-01-13T23:01:16.866Z,101345.53
2023-01-13T23:03:47.515Z,101345.56
2023-01-13T23:06:15.960Z,101357.84
2023-01-13T23:08:42.930Z,101368.38
2023-01-13T23:11:12.946Z,101364.06
2023-01-13T23:13:42.826Z,101368.50
2023-01-13T23:16:17.108Z,101371.16
2023-01-13T23:18:48.582Z,101370.34
2023-01-13T23:21:21.683Z,101374.72
2023-01-13T23:23:49.474Z,101378.25
2023-01-13T23:26:17.246Z,101383.50
2023-01-13T23:28:44.494Z,101373.91
2023-01-13T23:31:19.093Z,101383.50
2023-01-13T23:33:47.579Z,101376.56
2023-01-13T23:36:21.426Z,101380.06
2023-01-13T23:38:48.475Z,101369.63
2023-01-13T23:41:20.391Z,101366.09
2023-01-13T23:43:59.999Z,101364.38
2023-01-13T23:46:30.889Z,101368.72
2023-01-13T23:48:57.958Z,101358.28
2023-01-13T23:51:26.492Z,101353.03
2023-01-13T23:53:54.487Z,101345.19
2023-01-13T23:56:30.921Z,101340.84
2023-01-13T23:58:57.998Z,101346.94
